Time;durP1;ratioP1;P1;durP2;ratioP2;P2;SDS_P1;SDS_P2;PMS_P1;PMS_P2;Temp;Humidity;BMP_temperature;BMP_pressure;BME280_temperature;BME280_humidity;BME280_pressure;Samples;Min_cycle;Max_cycle;Signal;HPM_P1;HPM_P2
2021/04/22 00:00:11;;;;;;;25.72;16.50;;;;;;;14.34;63.63;101851.48;1766803;80;21178;-49
2021/04/22 00:02:39;;;;;;;23.32;15.65;;;;;;;14.32;63.76;101848.51;1773591;80;21169;-49
2021/04/22 00:05:16;;;;;;;17.50;14.15;;;;;;;14.32;63.86;101854.58;1771509;80;21186;-50
2021/04/22 00:07:47;;;;;;;16.45;13.85;;;;;;;14.39;63.71;101850.09;1749046;82;21259;-50
2021/04/22 00:10:16;;;;;;;13.93;12.63;;;;;;;14.46;63.53;101852.58;1755513;81;21289;-49
2021/04/22 00:12:44;;;;;;;14.53;12.73;;;;;;;14.49;63.61;101855.12;1756155;81;21155;-49
2021/04/22 00:15:17;;;;;;;15.03;13.35;;;;;;;14.51;63.85;101853.33;1756848;81;21603;-50
2021/04/22 00:17:46;;;;;;;15.10;13.53;;;;;;;14.55;63.99;101854.98;1756749;81;21139;-49
2021/04/22 00:20:16;;;;;;;17.35;13.65;;;;;;;14.61;63.98;101854.02;1743396;81;21120;-49
2021/04/22 00:22:43;;;;;;;15.25;13.55;;;;;;;14.63;64.00;101855.69;1752601;81;21171;-50
2021/04/22 00:25:13;;;;;;;15.72;12.68;;;;;;;14.67;64.01;101852.11;1757693;81;21682;-50
2021/04/22 00:27:41;;;;;;;17.23;13.78;;;;;;;14.70;64.08;101852.50;1756770;81;21159;-50
2021/04/22 00:30:13;;;;;;;16.93;14.78;;;;;;;14.74;64.25;101853.28;1756634;81;21552;-50
2021/04/22 00:32:41;;;;;;;15.93;13.83;;;;;;;14.76;64.23;101851.06;1753810;81;21179;-49
2021/04/22 00:35:11;;;;;;;17.37;14.38;;;;;;;14.79;64.25;101847.52;1753873;81;21168;-50
2021/04/22 00:37:40;;;;;;;15.80;14.07;;;;;;;14.82;64.35;101850.09;1753393;81;21156;-50
2021/04/22 00:40:18;;;;;;;15.72;14.07;;;;;;;14.85;64.35;101850.00;1753656;81;21164;-50
2021/04/22 00:42:45;;;;;;;15.53;13.93;;;;;;;14.87;64.27;101851.70;1740731;81;21192;-49
2021/04/22 00:45:15;;;;;;;15.53;13.93;;;;;;;14.91;64.28;101849.86;1757271;81;21128;-49
2021/04/22 00:47:43;;;;;;;15.58;12.93;;;;;;;14.92;64.23;101851.60;1753893;81;21163;-49
2021/04/22 00:50:18;;;;;;;15.50;13.95;;;;;;;14.94;64.17;101848.50;1754283;81;21183;-49
2021/04/22 00:52:46;;;;;;;15.25;13.65;;;;;;;14.95;64.31;101858.06;1649217;87;21222;-49
2021/04/22 00:55:14;;;;;;;17.75;15.78;;;;;;;14.96;64.32;101857.19;1649138;87;21250;-49
2021/04/22 00:57:44;;;;;;;16.27;14.68;;;;;;;14.96;64.39;101851.95;1646063;87;21223;-49
2021/04/22 01:00:14;;;;;;;16.73;15.03;;;;;;;14.97;64.28;101851.03;1648986;87;21222;-49
2021/04/22 01:02:42;;;;;;;16.00;14.40;;;;;;;14.96;64.37;101853.26;1648926;87;21229;-50
2021/04/22 01:05:25;;;;;;;17.05;14.93;;;;;;;14.96;64.44;101851.47;1648832;87;21391;-49
2021/04/22 01:07:53;;;;;;;16.10;14.50;;;;;;;14.97;64.47;101851.03;1649083;87;21193;-50
2021/04/22 01:10:21;;;;;;;16.70;14.40;;;;;;;14.97;64.48;101850.59;1649026;87;21154;-50
2021/04/22 01:12:49;;;;;;;20.08;15.75;;;;;;;14.98;64.33;101851.47;1649078;87;21335;-49
2021/04/22 01:15:21;;;;;;;18.52;15.38;;;;;;;14.98;64.30;101851.47;1649027;87;21233;-50
2021/04/22 01:17:49;;;;;;;15.98;14.33;;;;;;;14.98;64.37;101854.09;1648965;87;21162;-50
2021/04/22 01:20:21;;;;;;;17.37;15.50;;;;;;;15.01;64.31;101852.69;1648981;87;21241;-50
2021/04/22 01:22:57;;;;;;;17.45;15.20;;;;;;;15.08;64.18;101852.98;1778282;79;23128;-50
2021/04/22 01:25:37;;;;;;;16.40;14.70;;;;;;;15.03;64.10;101859.63;1739150;82;21219;-50
2021/04/22 01:28:06;;;;;;;19.05;15.80;;;;;;;15.02;64.18;101858.36;1743810;82;21152;-50
2021/04/22 01:30:41;;;;;;;15.85;14.20;;;;;;;15.02;64.20;101859.67;1740529;82;21167;-50
2021/04/22 01:33:10;;;;;;;16.32;14.73;;;;;;;15.01;64.16;101863.17;1736527;82;21648;-50
2021/04/22 01:35:41;;;;;;;21.35;16.12;;;;;;;15.02;64.05;101864.91;1742515;82;21164;-51
2021/04/22 01:38:09;;;;;;;19.00;15.13;;;;;;;15.03;64.05;101861.38;1732179;82;21184;-50
2021/04/22 01:40:39;;;;;;;17.12;15.35;;;;;;;15.04;63.97;101865.73;1744412;82;21148;-51
2021/04/22 01:43:08;;;;;;;18.65;16.10;;;;;;;15.06;63.92;101862.64;1733142;82;21163;-50
2021/04/22 01:45:36;;;;;;;18.15;15.18;;;;;;;15.05;63.87;101859.14;1734457;82;21151;-50
2021/04/22 01:48:06;;;;;;;17.27;15.43;;;;;;;15.03;63.84;101860.94;1741233;82;21163;-51
2021/04/22 01:50:35;;;;;;;19.32;16.20;;;;;;;15.06;63.80;101863.51;1736080;82;21172;-50
2021/04/22 01:53:06;;;;;;;19.85;16.07;;;;;;;15.04;63.85;101865.30;1740441;81;21160;-51
2021/04/22 01:55:38;;;;;;;21.23;17.07;;;;;;;15.06;63.75;101867.87;1709017;83;21656;-50
2021/04/22 01:58:16;;;;;;;20.32;16.52;;;;;;;15.08;63.68;101860.84;1771590;79;22964;-50
2021/04/22 02:00:56;;;;;;;22.30;17.57;;;;;;;15.02;63.55;101861.81;1739607;82;21164;-50
2021/04/22 02:03:26;;;;;;;17.98;16.07;;;;;;;15.00;63.48;101861.47;1737102;82;21147;-50
2021/04/22 02:05:55;;;;;;;19.10;17.07;;;;;;;14.99;63.55;101870.20;1741325;82;21161;-50
2021/04/22 02:08:23;;;;;;;17.35;15.53;;;;;;;14.98;63.40;101873.74;1734398;82;21184;-50
2021/04/22 02:10:51;;;;;;;16.27;14.58;;;;;;;14.98;63.27;101882.92;1741135;82;21624;-50
2021/04/22 02:13:21;;;;;;;16.55;14.85;;;;;;;14.94;63.21;101878.64;1737384;81;21208;-50
2021/04/22 02:15:49;;;;;;;16.27;14.70;;;;;;;14.93;63.35;101883.02;1738530;82;21172;-50
2021/04/22 02:18:17;;;;;;;18.95;15.95;;;;;;;14.92;63.53;101877.81;1739229;82;21552;-50
2021/04/22 02:20:47;;;;;;;17.35;15.55;;;;;;;14.94;63.56;101878.64;1744475;82;21180;-50
2021/04/22 02:23:17;;;;;;;17.27;15.58;;;;;;;14.94;63.55;101878.64;1734870;81;21187;-51
2021/04/22 02:25:47;;;;;;;16.42;14.55;;;;;;;14.93;63.54;101887.37;1737416;81;21536;-50
2021/04/22 02:28:16;;;;;;;17.57;15.55;;;;;;;14.95;63.26;101902.62;1737745;82;21169;-50
2021/04/22 02:30:45;;;;;;;17.48;15.72;;;;;;;14.93;63.23;101895.24;1739916;81;21195;-50
2021/04/22 02:33:15;;;;;;;17.10;15.13;;;;;;;14.92;63.27;101896.16;1737051;82;21691;-49
2021/04/22 02:35:44;;;;;;;16.87;15.10;;;;;;;14.93;63.21;101893.94;1741436;82;21180;-50
2021/04/22 02:38:14;;;;;;;16.02;14.43;;;;;;;14.91;63.09;101896.59;1733289;82;21145;-50
2021/04/22 02:40:43;;;;;;;18.20;15.70;;;;;;;14.90;63.08;101897.95;1744518;82;21200;-50
2021/04/22 02:43:14;;;;;;;16.27;14.58;;;;;;;15.12;62.40;101889.58;1732495;82;21289;-49
2021/04/22 02:45:45;;;;;;;17.85;15.83;;;;;;;15.15;62.16;101892.12;1734706;82;21200;-50
2021/04/22 02:48:13;;;;;;;17.02;14.83;;;;;;;15.16;61.78;101892.98;1736027;82;21176;-49
2021/04/22 02:50:46;;;;;;;18.92;15.65;;;;;;;15.15;61.17;101897.80;1736218;82;21200;-50
2021/04/22 02:53:14;;;;;;;17.12;14.58;;;;;;;15.08;61.29;101904.97;1737135;82;21172;-49
2021/04/22 02:55:45;;;;;;;19.60;16.42;;;;;;;15.06;61.43;101900.64;1731780;82;21120;-50
2021/04/22 02:58:15;;;;;;;22.67;17.80;;;;;;;15.05;61.46;101900.22;1723849;82;21201;-50
2021/04/22 03:00:44;;;;;;;15.40;13.80;;;;;;;15.02;61.18;101908.16;1726623;82;21157;-50
2021/04/22 03:03:13;;;;;;;22.25;17.05;;;;;;;14.96;61.19;101908.30;1721617;82;21184;-51
2021/04/22 03:05:42;;;;;;;22.20;17.80;;;;;;;14.74;61.78;101910.92;1729069;82;21157;-50
2021/04/22 03:08:10;;;;;;;16.62;14.78;;;;;;;14.89;61.14;101911.93;1722621;82;21157;-49
2021/04/22 03:10:38;;;;;;;19.57;14.98;;;;;;;14.89;61.02;101910.62;1725012;82;21173;-50
2021/04/22 03:13:06;;;;;;;19.60;16.00;;;;;;;14.89;61.03;101910.62;1725144;82;21621;-50
2021/04/22 03:15:35;;;;;;;13.65;12.28;;;;;;;14.86;60.79;101904.16;1723901;82;21157;-50
2021/04/22 03:18:04;;;;;;;16.27;14.23;;;;;;;14.87;60.85;101911.09;1725749;82;21169;-50
2021/04/22 03:20:32;;;;;;;12.70;11.20;;;;;;;14.84;60.92;101911.19;1731072;82;21184;-50
2021/04/22 03:23:01;;;;;;;16.50;13.78;;;;;;;14.83;60.94;101909.44;1723452;82;21200;-49
2021/04/22 03:25:29;;;;;;;16.57;13.40;;;;;;;14.83;60.84;101909.44;1724407;82;21133;-51
2021/04/22 03:27:58;;;;;;;23.45;16.12;;;;;;;14.82;60.79;101909.05;1726732;82;21561;-50
2021/04/22 03:30:29;;;;;;;17.67;14.80;;;;;;;14.81;60.73;101914.72;1727403;82;21121;-50
2021/04/22 03:32:56;;;;;;;17.60;15.00;;;;;;;14.80;60.98;101918.22;1720221;82;21161;-50
2021/04/22 03:35:25;;;;;;;15.80;14.18;;;;;;;14.81;61.30;101912.55;1730740;82;21142;-50
2021/04/22 03:37:53;;;;;;;16.05;14.45;;;;;;;14.82;61.54;101915.13;1718504;82;21169;-51
2021/04/22 03:40:23;;;;;;;15.60;14.10;;;;;;;14.85;61.84;101915.52;1728238;82;21287;-50
2021/04/22 03:42:51;;;;;;;13.62;12.28;;;;;;;14.86;62.16;101917.25;1720001;82;21125;-50
2021/04/22 03:45:19;;;;;;;15.68;13.98;;;;;;;14.88;62.53;101924.64;1723439;82;21192;-50
2021/04/22 03:47:48;;;;;;;14.70;13.20;;;;;;;14.92;62.82;101922.36;1723313;82;21121;-49
2021/04/22 03:50:17;;;;;;;14.68;13.18;;;;;;;14.97;62.94;101923.11;1718574;82;21110;-50
2021/04/22 03:52:45;;;;;;;13.60;12.05;;;;;;;15.02;63.00;101927.82;1721044;82;21185;-50
2021/04/22 03:55:16;;;;;;;13.90;12.50;;;;;;;15.06;63.09;101936.03;1720837;82;21110;-50
2021/04/22 03:57:44;;;;;;;12.23;11.03;;;;;;;15.12;63.31;101933.28;1731284;81;21568;-49
2021/04/22 04:00:15;;;;;;;14.07;12.65;;;;;;;15.19;63.38;101937.47;1732527;82;21145;-50
2021/04/22 04:02:42;;;;;;;13.18;11.80;;;;;;;15.25;63.29;101933.44;1733212;82;21593;-49
2021/04/22 04:05:13;;;;;;;13.30;12.00;;;;;;;15.30;63.21;101939.42;1732020;82;21549;-49
2021/04/22 04:07:40;;;;;;;12.45;11.25;;;;;;;15.21;63.64;101936.55;1734673;82;21589;-50
2021/04/22 04:10:10;;;;;;;13.85;12.43;;;;;;;15.37;63.41;101937.09;1729514;82;21320;-49
2021/04/22 04:12:38;;;;;;;13.72;12.33;;;;;;;15.44;63.36;101938.69;1737946;82;21173;-50
2021/04/22 04:15:07;;;;;;;13.10;11.90;;;;;;;15.50;63.14;101942.95;1722241;82;21156;-50
2021/04/22 04:17:35;;;;;;;13.03;11.73;;;;;;;15.33;63.79;101943.30;1732449;82;21145;-49
2021/04/22 04:20:07;;;;;;;15.63;13.55;;;;;;;15.33;63.98;101951.17;1739591;82;21195;-50
2021/04/22 04:22:35;;;;;;;13.67;12.27;;;;;;;15.53;63.56;101954.23;1733203;82;21152;-50
2021/04/22 04:25:05;;;;;;;13.25;11.90;;;;;;;15.67;63.08;101959.14;1729699;82;21569;-50
2021/04/22 04:27:32;;;;;;;13.68;12.23;;;;;;;15.70;62.81;101959.95;1738087;82;21185;-50
2021/04/22 04:30:01;;;;;;;13.55;12.25;;;;;;;15.73;62.81;101959.86;1720933;82;21156;-50
2021/04/22 04:32:30;;;;;;;13.90;12.25;;;;;;;15.76;62.83;101961.56;1732400;82;21173;-50
2021/04/22 04:34:58;;;;;;;15.65;12.43;;;;;;;15.79;62.83;101964.96;1733157;82;21171;-50
2021/04/22 04:37:26;;;;;;;14.25;12.75;;;;;;;15.84;62.88;101964.86;1731556;82;21181;-50
2021/04/22 04:39:54;;;;;;;16.70;12.30;;;;;;;15.67;63.46;101967.88;1736203;82;21169;-50
2021/04/22 04:42:22;;;;;;;13.08;11.88;;;;;;;15.88;63.03;101975.25;1720094;82;21148;-51
2021/04/22 04:44:50;;;;;;;14.85;12.05;;;;;;;15.72;63.62;101966.03;1731758;82;21188;-51
2021/04/22 04:47:18;;;;;;;14.33;12.78;;;;;;;15.74;63.80;101967.30;1734785;82;21180;-51
2021/04/22 04:49:47;;;;;;;13.60;12.35;;;;;;;15.85;63.42;101970.06;1687597;82;21145;-50
2021/04/22 04:52:15;;;;;;;13.53;12.13;;;;;;;15.81;63.61;101973.66;1727223;82;21576;-51
2021/04/22 04:54:44;;;;;;;13.48;12.23;;;;;;;15.82;63.64;101974.53;1738819;82;21198;-50
2021/04/22 04:57:12;;;;;;;13.68;12.30;;;;;;;15.85;63.71;101970.51;1691877;82;21500;-50
2021/04/22 04:59:39;;;;;;;13.25;11.85;;;;;;;15.89;63.81;101972.19;1733523;81;21136;-51
2021/04/22 05:02:08;;;;;;;12.68;11.38;;;;;;;16.12;63.01;101966.77;1737936;82;21557;-50
2021/04/22 05:04:36;;;;;;;15.05;11.12;;;;;;;16.19;62.88;101972.28;1729241;82;21184;-50
2021/04/22 05:07:04;;;;;;;13.75;12.35;;;;;;;16.22;62.79;101975.25;1740955;82;21553;-50
2021/04/22 05:09:32;;;;;;;13.50;12.10;;;;;;;16.26;62.72;101968.58;1729519;82;21290;-50
2021/04/22 05:12:00;;;;;;;15.90;12.63;;;;;;;16.29;62.58;101973.77;1737540;82;21165;-50
2021/04/22 05:14:28;;;;;;;13.85;11.43;;;;;;;16.32;62.48;101970.20;1734424;82;21298;-50
2021/04/22 05:16:57;;;;;;;12.35;11.08;;;;;;;16.38;62.32;101977.92;1734907;82;21176;-51
2021/04/22 05:19:25;;;;;;;11.50;10.28;;;;;;;16.26;62.77;101972.52;1739275;82;21287;-51
2021/04/22 05:21:53;;;;;;;13.05;11.60;;;;;;;16.16;63.11;101973.66;1733648;82;21164;-50
2021/04/22 05:24:22;;;;;;;14.07;12.25;;;;;;;16.16;63.13;101974.97;1741051;82;21144;-50
2021/04/22 05:26:49;;;;;;;12.65;11.15;;;;;;;16.24;63.21;101981.33;1733386;81;21155;-50
2021/04/22 05:29:17;;;;;;;15.23;11.85;;;;;;;16.48;62.52;101985.10;1733521;82;21128;-50
2021/04/22 05:31:45;;;;;;;12.30;10.68;;;;;;;16.54;62.31;101988.91;1738266;81;21140;-50
2021/04/22 05:34:13;;;;;;;12.88;11.57;;;;;;;16.58;62.24;101991.86;1731761;82;21140;-50
2021/04/22 05:36:41;;;;;;;11.57;10.48;;;;;;;16.58;62.65;101994.48;1736131;82;21130;-51
2021/04/22 05:39:10;;;;;;;10.95;9.85;;;;;;;16.60;63.83;101995.31;1734592;82;21157;-50
2021/04/22 05:41:38;;;;;;;10.78;9.70;;;;;;;16.88;63.25;101996.27;1735961;82;21149;-50
2021/04/22 05:44:08;;;;;;;10.32;9.00;;;;;;;17.18;62.11;102000.67;1736780;82;21157;-49
2021/04/22 05:46:36;;;;;;;12.90;9.73;;;;;;;17.45;60.97;101997.23;1727758;82;21664;-50
2021/04/22 05:49:04;;;;;;;12.30;9.90;;;;;;;17.63;60.13;101996.69;1730082;82;21144;-49
2021/04/22 05:51:32;;;;;;;11.30;10.20;;;;;;;17.78;59.76;101998.81;1730524;82;21274;-49
2021/04/22 05:54:00;;;;;;;9.60;8.48;;;;;;;17.92;59.16;102005.42;1728335;82;21133;-49
2021/04/22 05:56:29;;;;;;;8.65;7.95;;;;;;;18.09;58.75;101997.84;1654432;86;21215;-50
2021/04/22 05:58:57;;;;;;;13.72;9.15;;;;;;;18.32;58.30;102000.58;1714882;82;21294;-50
2021/04/22 06:01:25;;;;;;;10.32;9.23;;;;;;;18.61;57.71;101999.98;1720453;82;21168;-49
2021/04/22 06:03:55;;;;;;;8.73;7.92;;;;;;;18.95;57.03;101994.38;1724872;82;21266;-49
2021/04/22 06:06:23;;;;;;;8.65;7.85;;;;;;;19.33;55.55;101997.78;1649124;86;21609;-49
2021/04/22 06:08:51;;;;;;;10.65;8.58;;;;;;;19.65;54.68;101993.03;1719653;82;21129;-49
2021/04/22 06:11:19;;;;;;;8.58;7.78;;;;;;;20.10;53.37;101989.84;1724776;82;21169;-50
2021/04/22 06:13:47;;;;;;;8.93;7.72;;;;;;;20.36;52.43;101988.30;1713866;82;21172;-51
2021/04/22 06:16:16;;;;;;;10.13;8.85;;;;;;;20.56;51.99;101988.33;1713438;82;21149;-48
2021/04/22 06:18:45;;;;;;;7.37;6.65;;;;;;;20.78;51.40;101989.09;1727960;82;21137;-49
2021/04/22 06:21:15;;;;;;;8.55;7.45;;;;;;;21.00;50.50;101984.55;1724189;82;21158;-49
2021/04/22 06:23:45;;;;;;;9.25;8.18;;;;;;;21.13;49.84;101988.86;1723525;82;21185;-49
2021/04/22 06:26:13;;;;;;;12.95;7.67;;;;;;;21.06;49.52;101989.59;1715984;82;21125;-48
2021/04/22 06:28:41;;;;;;;8.70;7.70;;;;;;;20.90;49.70;101999.59;1731826;82;21113;-49
2021/04/22 06:31:10;;;;;;;8.65;7.75;;;;;;;20.68;50.36;101999.70;1725015;82;21629;-49
2021/04/22 06:33:38;;;;;;;7.55;6.65;;;;;;;20.53;50.54;101999.03;1717170;82;21180;-49
2021/04/22 06:36:08;;;;;;;8.03;7.22;;;;;;;20.47;50.57;101999.30;1722216;82;21161;-49
2021/04/22 06:38:36;;;;;;;7.58;6.87;;;;;;;20.47;50.69;102001.94;1718129;82;21141;-48
2021/04/22 06:41:04;;;;;;;8.00;7.00;;;;;;;20.49;50.69;102005.38;1716634;82;21157;-48
2021/04/22 06:43:33;;;;;;;7.85;7.15;;;;;;;20.40;50.91;102011.08;1713436;82;21161;-49
2021/04/22 06:46:01;;;;;;;9.23;7.60;;;;;;;20.25;51.30;102006.42;1725563;82;21128;-48
2021/04/22 06:48:31;;;;;;;7.95;7.25;;;;;;;20.29;51.30;102010.66;1650980;86;21172;-49
2021/04/22 06:50:59;;;;;;;7.97;7.12;;;;;;;20.47;50.93;102016.48;1719305;82;21174;-49
2021/04/22 06:53:27;;;;;;;7.53;6.83;;;;;;;20.59;50.50;102017.27;1710222;82;21672;-49
2021/04/22 06:55:54;;;;;;;8.58;7.50;;;;;;;20.65;50.17;102019.64;1717238;82;21137;-49
2021/04/22 06:58:23;;;;;;;8.93;7.90;;;;;;;20.72;50.13;102022.89;1717386;82;21567;-49
2021/04/22 07:00:51;;;;;;;8.50;7.67;;;;;;;20.78;49.87;102022.16;1735833;82;21117;-49
2021/04/22 07:03:19;;;;;;;9.00;7.90;;;;;;;20.81;49.70;102025.98;1734194;82;21532;-49
2021/04/22 07:05:47;;;;;;;10.08;9.08;;;;;;;20.77;49.79;102024.89;1678811;85;21172;-49
2021/04/22 07:08:15;;;;;;;10.72;8.15;;;;;;;20.65;49.92;102019.64;1721895;82;21112;-48
2021/04/22 07:10:43;;;;;;;10.13;8.38;;;;;;;20.66;49.75;102022.70;1744072;82;21629;-48
2021/04/22 07:13:11;;;;;;;7.33;6.62;;;;;;;20.72;49.54;102022.89;1740490;82;21270;-48
2021/04/22 07:15:41;;;;;;;7.15;6.42;;;;;;;20.76;49.11;102021.83;1738655;82;21113;-48
2021/04/22 07:18:14;;;;;;;9.20;7.60;;;;;;;21.02;48.33;102022.42;1747447;82;21189;-48
2021/04/22 07:20:42;;;;;;;11.35;7.12;;;;;;;21.10;48.05;102022.09;1735921;82;21156;-49
2021/04/22 07:23:14;;;;;;;8.65;7.83;;;;;;;21.14;47.82;102021.48;1742265;82;21572;-49
2021/04/22 07:25:42;;;;;;;7.97;7.17;;;;;;;21.13;47.64;102024.59;1739516;82;21564;-47
2021/04/22 07:28:11;;;;;;;9.38;8.30;;;;;;;21.13;47.73;102023.72;1738502;82;21147;-49
2021/04/22 07:30:39;;;;;;;8.53;7.67;;;;;;;21.12;47.72;102025.99;1742980;82;21132;-48
2021/04/22 07:33:09;;;;;;;9.48;7.55;;;;;;;21.05;47.95;102025.41;1732916;82;21144;-48
2021/04/22 07:35:38;;;;;;;9.55;7.50;;;;;;;20.96;48.07;102023.13;1733295;82;21140;-49
2021/04/22 07:38:14;;;;;;;8.03;6.95;;;;;;;20.79;48.44;102027.00;1744040;82;21596;-49
2021/04/22 07:40:42;;;;;;;7.60;5.75;;;;;;;20.58;49.02;102033.21;1736629;82;21139;-48
2021/04/22 07:43:11;;;;;;;7.25;5.47;;;;;;;20.35;49.65;102036.83;1731540;82;21156;-48
2021/04/22 07:45:43;;;;;;;6.97;5.47;;;;;;;19.93;50.60;102030.62;1732539;82;21298;-50
2021/04/22 07:48:11;;;;;;;5.70;4.78;;;;;;;19.71;51.42;102032.40;1734457;82;21140;-50
2021/04/22 07:50:40;;;;;;;6.78;4.90;;;;;;;19.53;52.02;102039.72;1727407;82;21175;-50
2021/04/22 07:53:08;;;;;;;7.62;4.47;;;;;;;19.41;52.50;102045.86;1733559;82;21158;-50
2021/04/22 07:55:41;;;;;;;6.65;5.28;;;;;;;19.47;52.73;102041.66;1726046;82;21117;-50
2021/04/22 07:58:09;;;;;;;4.22;3.55;;;;;;;19.56;52.70;102042.26;1742247;81;21165;-50
2021/04/22 08:00:37;;;;;;;5.83;3.80;;;;;;;19.54;52.69;102041.45;1738966;82;21140;-49
2021/04/22 08:03:06;;;;;;;10.20;4.92;;;;;;;19.51;53.17;102040.23;1735276;82;21165;-50
2021/04/22 08:05:37;;;;;;;4.60;3.33;;;;;;;19.49;53.32;102038.50;1738794;82;21140;-49
2021/04/22 08:08:08;;;;;;;7.65;4.10;;;;;;;19.52;53.18;102039.30;1739437;82;21163;-48
2021/04/22 08:10:41;;;;;;;7.57;3.27;;;;;;;19.53;53.11;102035.76;1737552;82;21129;-48
2021/04/22 08:13:11;;;;;;;9.00;3.22;;;;;;;19.54;52.87;102039.65;1732276;82;21811;-49
2021/04/22 08:15:41;;;;;;;5.55;3.37;;;;;;;19.52;52.85;102041.95;1724838;82;21146;-49
2021/04/22 08:18:10;;;;;;;6.85;3.42;;;;;;;19.45;53.07;102042.18;1731451;82;21168;-48
2021/04/22 08:20:38;;;;;;;3.10;2.60;;;;;;;19.40;53.40;102042.83;1741179;82;21519;-49
2021/04/22 08:23:08;;;;;;;3.27;2.75;;;;;;;19.37;53.69;102040.77;1730972;82;21156;-48
2021/04/22 08:25:49;;;;;;;31.07;4.85;;;;;;;19.35;53.85;102042.12;1737842;82;21153;-48
2021/04/22 08:28:18;;;;;;;;;;;;;;;19.35;53.92;102042.61;1741797;82;21626;-49
2021/04/22 08:30:52;;;;;;;5.83;3.52;;;;;;;19.37;53.85;102041.61;1737088;82;20154;-49
2021/04/22 08:33:22;;;;;;;9.50;4.00;;;;;;;19.37;53.83;102046.05;1739056;80;21163;-48
2021/04/22 08:35:50;;;;;;;5.45;3.50;;;;;;;19.36;53.95;102039.91;1737002;82;21156;-49
2021/04/22 08:38:18;;;;;;;3.22;3.02;;;;;;;19.37;54.03;102040.77;1733063;81;21121;-50
2021/04/22 08:40:48;;;;;;;5.05;2.72;;;;;;;19.35;54.05;102042.12;1665602;85;22228;-49
2021/04/22 08:43:16;;;;;;;3.35;3.05;;;;;;;19.35;54.20;102047.41;1727621;82;21136;-48
2021/04/22 08:45:45;;;;;;;4.42;3.80;;;;;;;19.35;54.43;102042.12;1737382;82;21168;-49
2021/04/22 08:48:13;;;;;;;4.90;4.10;;;;;;;19.38;54.44;102052.59;1671814;85;21173;-48
2021/04/22 08:50:44;;;;;;;5.72;4.42;;;;;;;19.40;54.33;102041.52;1727344;82;21104;-49
2021/04/22 08:53:19;;;;;;;5.42;4.33;;;;;;;19.40;54.13;102041.52;1734437;80;21160;-49
2021/04/22 08:55:47;;;;;;;10.70;4.75;;;;;;;19.38;54.10;102035.43;1730920;82;21113;-48
2021/04/22 08:58:15;;;;;;;6.55;4.25;;;;;;;19.36;54.30;102034.63;1724071;82;21196;-48
2021/04/22 09:00:54;;;;;;;110.12;14.55;;;;;;;19.39;54.63;102037.13;1719669;81;21628;-49
2021/04/22 09:03:22;;;;;;;8.35;4.45;;;;;;;19.46;54.49;102034.67;1651727;85;21167;-49
2021/04/22 09:05:50;;;;;;;4.83;4.37;;;;;;;19.56;54.33;102037.81;1657388;86;21228;-49
2021/04/22 09:08:20;;;;;;;5.30;4.83;;;;;;;19.61;54.18;102035.87;1655695;86;21155;-49
2021/04/22 09:10:49;;;;;;;7.75;5.45;;;;;;;19.65;54.21;102039.24;1633959;86;21288;-49
2021/04/22 09:13:18;;;;;;;24.92;8.05;;;;;;;19.63;54.03;102034.48;1657455;86;21365;-49
2021/04/22 09:15:48;;;;;;;11.22;5.70;;;;;;;19.62;54.11;102036.25;1657006;86;21172;-49
2021/04/22 09:18:19;;;;;;;16.80;7.45;;;;;;;19.62;54.14;102036.73;1648082;86;21165;-48
2021/04/22 09:20:50;;;;;;;6.72;5.97;;;;;;;19.62;54.04;102030.97;1657509;86;21256;-49
2021/04/22 09:23:20;;;;;;;6.45;5.85;;;;;;;19.67;53.88;102022.87;1655001;86;21176;-48
2021/04/22 09:25:58;;;;;;;10.93;7.33;;;;;;;19.70;53.65;102025.41;1656257;86;21648;-49
2021/04/22 09:28:44;;;;;;;8.20;7.50;;;;;;;19.68;53.79;102028.09;1652144;86;21172;-47
2021/04/22 09:31:24;;;;;;;6.90;6.30;;;;;;;19.66;53.65;102021.17;1651347;86;21172;-48
2021/04/22 09:34:15;;;;;;;7.33;6.45;;;;;;;19.62;53.65;102027.50;1656678;86;21179;-49
2021/04/22 09:36:52;;;;;;;6.85;5.62;;;;;;;19.58;53.81;102025.89;1652475;86;21286;-48
2021/04/22 09:39:26;;;;;;;10.75;7.50;;;;;;;19.54;53.93;102022.98;1657716;86;21185;-48
2021/04/22 09:42:00;;;;;;;9.08;8.28;;;;;;;19.53;54.20;102022.56;1658197;86;21231;-48
2021/04/22 09:44:35;;;;;;;8.93;8.05;;;;;;;19.58;54.40;102028.53;1815946;79;23534;-50
2021/04/22 09:47:16;;;;;;;9.88;7.67;;;;;;;19.55;54.32;102022.04;1788154;80;21184;-50
2021/04/22 09:49:58;;;;;;;8.45;7.55;;;;;;;19.58;54.09;102023.25;1720571;83;21190;-50
2021/04/22 09:52:32;;;;;;;7.45;6.67;;;;;;;19.62;54.18;102019.58;1804616;79;23508;-48
2021/04/22 09:55:00;;;;;;;9.73;6.10;;;;;;;19.59;54.14;102023.64;1726202;82;21220;-50
2021/04/22 09:57:31;;;;;;;6.90;6.30;;;;;;;19.62;54.20;102010.33;1753917;81;21136;-48
2021/04/22 10:00:00;;;;;;;7.37;6.45;;;;;;;19.66;54.17;102013.25;1703600;83;21176;-48
2021/04/22 10:02:28;;;;;;;12.58;7.55;;;;;;;19.68;53.85;102014.05;1698133;83;21156;-48
2021/04/22 10:04:56;;;;;;;8.23;7.30;;;;;;;19.69;53.88;102019.27;1708197;83;21160;-50
2021/04/22 10:07:30;;;;;;;7.78;7.12;;;;;;;19.68;53.69;102012.73;1708269;83;21188;-47
2021/04/22 10:10:03;;;;;;;7.03;6.30;;;;;;;19.67;53.77;102011.00;1705574;83;21165;-48
2021/04/22 10:12:37;;;;;;;8.05;6.70;;;;;;;19.68;53.86;102012.73;1773366;79;23075;-47
2021/04/22 10:15:22;;;;;;;7.72;6.92;;;;;;;19.64;53.68;102017.73;1666273;85;21192;-50
2021/04/22 10:17:56;;;;;;;7.28;6.58;;;;;;;19.63;53.84;102019.50;1680535;85;21156;-50
2021/04/22 10:20:27;;;;;;;11.25;6.83;;;;;;;19.62;53.95;102019.58;1682348;84;21158;-48
2021/04/22 10:22:55;;;;;;;8.00;7.20;;;;;;;19.60;53.88;102014.81;1711030;83;21235;-48
2021/04/22 10:25:30;;;;;;;7.20;6.50;;;;;;;19.60;53.84;102020.09;1680616;84;21358;-50
2021/04/22 10:28:15;;;;;;;6.17;5.62;;;;;;;19.58;53.96;102012.70;1728935;83;21145;-48
2021/04/22 10:30:45;;;;;;;6.65;6.05;;;;;;;19.62;54.07;102013.81;1722074;83;21203;-50
2021/04/22 10:33:13;;;;;;;7.25;6.65;;;;;;;19.66;53.90;102020.69;1722282;83;21132;-50
2021/04/22 10:35:43;;;;;;;8.58;7.60;;;;;;;19.67;53.83;102018.92;1669091;86;21215;-48
2021/04/22 10:38:12;;;;;;;7.92;7.20;;;;;;;19.67;53.92;102022.87;1685512;84;21239;-50
2021/04/22 10:40:44;;;;;;;7.17;6.58;;;;;;;19.67;53.83;102017.59;1714683;83;21147;-48
2021/04/22 10:43:24;;;;;;;6.78;6.17;;;;;;;19.67;53.85;102016.28;1730210;83;21204;-49
2021/04/22 10:45:57;;;;;;;8.25;7.33;;;;;;;19.69;53.96;102010.02;1766208;79;23098;-48
2021/04/22 10:48:25;;;;;;;7.45;6.78;;;;;;;19.66;53.91;102011.45;1728120;82;21163;-47
2021/04/22 10:50:53;;;;;;;11.60;7.35;;;;;;;19.66;54.08;102012.77;1742337;82;21172;-50
2021/04/22 10:53:23;;;;;;;9.28;7.42;;;;;;;19.69;54.12;102018.39;1738381;82;21176;-50
2021/04/22 10:55:53;;;;;;;8.60;7.45;;;;;;;19.74;53.96;102020.41;1733452;82;21313;-48
2021/04/22 10:58:27;;;;;;;6.80;6.20;;;;;;;19.79;53.92;102017.11;1723224;82;21160;-48
2021/04/22 11:00:59;;;;;;;6.83;6.12;;;;;;;19.86;53.62;102011.98;1741788;82;21620;-50
2021/04/22 11:03:42;;;;;;;;;;;;;;;19.87;53.50;102007.95;1738252;82;21148;-48
2021/04/22 11:06:20;;;;;;;8.10;6.53;;;;;;;19.88;53.42;102008.83;1743963;82;20142;-48
2021/04/22 11:08:51;;;;;;;7.53;6.65;;;;;;;19.88;53.46;102004.86;1725484;82;21310;-50
2021/04/22 11:11:27;;;;;;;7.05;6.35;;;;;;;19.94;53.50;102000.20;1738107;82;21177;-49
2021/04/22 11:14:14;;;;;;;10.53;7.17;;;;;;;20.01;53.24;102004.77;1744436;82;21180;-50
2021/04/22 11:16:51;;;;;;;10.43;6.90;;;;;;;20.03;53.02;101996.33;1666122;86;21192;-50
2021/04/22 11:19:41;;;;;;;9.35;6.12;;;;;;;20.01;53.09;101996.84;1670820;86;21656;-49
2021/04/22 11:22:29;;;;;;;9.65;6.17;;;;;;;20.09;53.09;101989.46;1811419;79;23432;-50
2021/04/22 11:24:59;;;;;;;14.13;7.05;;;;;;;20.08;53.04;101993.02;1771469;80;21112;-48
2021/04/22 11:27:35;;;;;;;6.72;6.10;;;;;;;20.13;52.94;102001.62;1766755;80;21158;-48
2021/04/22 11:30:06;;;;;;;7.20;6.35;;;;;;;20.15;52.85;101994.48;1747354;80;21183;-50